Time;durP1;ratioP1;P1;durP2;ratioP2;P2;SDS_P1;SDS_P2;PMS_P1;PMS_P2;Temp;Humidity;BMP_temperature;BMP_pressure;BME280_temperature;BME280_humidity;BME280_pressure;Samples;Min_cycle;Max_cycle;Signal;HPM_P1;HPM_P2
2022/05/28 00:00:37;;;;;;;14.93;10.83;;;23.30;81.70;;;;;;5041960;28;20281;-81
2022/05/28 00:03:04;;;;;;;15.67;9.73;;;23.30;81.70;;;;;;5058299;28;20202;-81
2022/05/28 00:05:32;;;;;;;25.73;9.70;;;23.30;81.60;;;;;;5059717;28;20256;-81
2022/05/28 00:08:00;;;;;;;16.27;9.93;;;23.20;81.60;;;;;;5057833;28;20215;-81
2022/05/28 00:10:27;;;;;;;21.37;11.40;;;23.20;81.50;;;;;;5058352;28;20206;-81
2022/05/28 00:12:57;;;;;;;18.60;11.10;;;23.10;81.50;;;;;;5059039;28;20205;-81
2022/05/28 00:15:24;;;;;;;18.30;10.37;;;23.10;81.60;;;;;;5059352;28;20186;-81
2022/05/28 00:17:51;;;;;;;19.00;10.33;;;23.10;81.90;;;;;;5057835;28;20203;-81
2022/05/28 00:20:19;;;;;;;18.30;10.63;;;23.00;82.10;;;;;;5058524;28;20293;-81
2022/05/28 00:22:46;;;;;;;16.40;11.33;;;22.90;82.30;;;;;;5058916;28;20210;-81
2022/05/28 00:25:16;;;;;;;20.57;11.40;;;22.90;82.60;;;;;;5059689;28;20202;-81
2022/05/28 00:27:44;;;;;;;18.63;10.70;;;22.90;82.90;;;;;;5058894;28;20230;-81
2022/05/28 00:30:36;;;;;;;14.73;11.13;;;22.80;83.10;;;;;;5043216;28;20298;-81
2022/05/28 00:33:27;;;;;;;17.37;11.07;;;22.80;83.40;;;;;;5061516;28;20229;-81
2022/05/28 00:36:40;;;;;;;15.67;11.30;;;22.70;83.50;;;;;;5051994;28;20557;-81
2022/05/28 00:39:30;;;;;;;19.93;11.67;;;22.70;84.00;;;;;;5058630;28;20267;-80
2022/05/28 00:42:21;;;;;;;14.63;11.00;;;22.70;84.20;;;;;;5057363;28;20221;-80
2022/05/28 00:45:03;;;;;;;17.17;11.50;;;22.60;84.20;;;;;;5043936;28;20596;-81
2022/05/28 00:47:32;;;;;;;20.00;11.83;;;22.50;84.30;;;;;;5059746;28;20241;-81
2022/05/28 00:50:02;;;;;;;18.23;10.93;;;22.50;84.50;;;;;;5026049;28;20195;-81
2022/05/28 00:52:30;;;;;;;14.97;10.80;;;22.50;84.60;;;;;;5040033;28;20225;-81
2022/05/28 00:54:57;;;;;;;13.10;10.23;;;22.50;84.80;;;;;;5033705;28;20246;-81
2022/05/28 00:57:26;;;;;;;17.20;11.53;;;22.50;84.80;;;;;;5047374;28;20219;-81
2022/05/28 00:59:55;;;;;;;16.87;11.90;;;22.50;84.80;;;;;;5041660;28;20211;-81
2022/05/28 01:02:38;;;;;;;14.90;11.37;;;22.40;84.80;;;;;;5023163;28;20210;-81
2022/05/28 01:05:28;;;;;;;18.20;11.50;;;22.40;84.80;;;;;;5037412;28;20768;-82
2022/05/28 01:07:58;;;;;;;18.80;11.73;;;22.40;84.70;;;;;;5040181;28;20265;-81
2022/05/28 01:10:41;;;;;;;18.47;11.43;;;22.30;84.70;;;;;;5028653;28;20215;-81
2022/05/28 01:13:13;;;;;;;18.87;12.60;;;22.30;85.30;;;;;;5074639;28;20210;-81
2022/05/28 01:15:48;;;;;;;18.60;13.20;;;22.30;85.50;;;;;;5036891;28;20196;-81
2022/05/28 01:18:26;;;;;;;23.57;14.10;;;22.20;85.70;;;;;;5056071;28;20199;-81
2022/05/28 01:20:59;;;;;;;18.73;13.67;;;22.10;86.20;;;;;;5043720;28;20851;-81
2022/05/28 01:23:52;;;;;;;17.57;12.37;;;22.10;86.70;;;;;;5043424;28;20214;-81
2022/05/28 01:26:57;;;;;;;19.57;13.30;;;22.10;87.40;;;;;;5042193;28;20312;-81
2022/05/28 01:29:32;;;;;;;20.73;13.33;;;22.00;87.50;;;;;;5035551;28;20624;-81
2022/05/28 01:32:04;;;;;;;20.13;13.37;;;22.00;87.60;;;;;;5070692;28;20202;-81
2022/05/28 01:34:33;;;;;;;19.13;13.10;;;22.00;87.50;;;;;;5043630;28;20248;-81
2022/05/28 01:37:04;;;;;;;19.43;13.63;;;22.00;87.30;;;;;;5037499;28;20225;-81
2022/05/28 01:39:34;;;;;;;18.90;13.50;;;22.00;87.20;;;;;;5031044;28;20198;-81
2022/05/28 01:42:02;;;;;;;16.83;13.03;;;22.00;86.90;;;;;;5040439;28;20198;-82
2022/05/28 01:44:32;;;;;;;19.77;12.70;;;22.00;87.00;;;;;;5023380;28;20612;-81
2022/05/28 01:47:01;;;;;;;24.97;13.53;;;22.00;87.10;;;;;;5058287;28;20324;-81
2022/05/28 01:49:31;;;;;;;19.63;12.53;;;22.00;87.10;;;;;;5048832;28;20260;-81
2022/05/28 01:52:01;;;;;;;22.97;12.47;;;22.00;87.30;;;;;;5044645;28;20289;-82
2022/05/28 01:54:43;;;;;;;21.70;13.13;;;22.00;87.40;;;;;;5023723;28;20893;-81
2022/05/28 01:57:13;;;;;;;21.30;15.20;;;22.00;87.30;;;;;;5040410;28;20276;-81
2022/05/28 01:59:43;;;;;;;19.10;12.67;;;22.00;87.30;;;;;;5040252;28;20253;-81
2022/05/28 02:02:13;;;;;;;18.47;14.20;;;22.00;87.40;;;;;;5067569;28;20218;-82
2022/05/28 02:04:45;;;;;;;28.60;14.53;;;21.90;87.50;;;;;;5053569;28;20206;-81
2022/05/28 02:07:16;;;;;;;17.00;11.57;;;21.90;87.60;;;;;;5024913;28;20215;-81
2022/05/28 02:10:05;;;;;;;17.93;11.80;;;21.90;87.70;;;;;;5026098;28;20285;-81
2022/05/28 02:12:40;;;;;;;15.90;12.37;;;21.90;87.80;;;;;;5040568;28;20203;-81
2022/05/28 02:15:28;;;;;;;17.13;13.03;;;21.90;87.80;;;;;;5063389;28;20264;-81
2022/05/28 02:18:04;;;;;;;17.13;12.73;;;21.90;88.10;;;;;;5077234;28;20217;-81
2022/05/28 02:20:46;;;;;;;21.17;13.23;;;21.90;89.30;;;;;;5064739;28;20200;-82
2022/05/28 02:23:53;;;;;;;15.70;12.20;;;21.90;89.10;;;;;;5059327;28;20218;-81
2022/05/28 02:26:28;;;;;;;21.17;13.50;;;21.90;89.50;;;;;;5042319;28;20229;-81
2022/05/28 02:28:58;;;;;;;21.93;12.77;;;21.90;89.20;;;;;;5028114;28;20210;-81
2022/05/28 02:31:29;;;;;;;18.10;13.70;;;21.90;89.00;;;;;;5052727;28;20211;-80
2022/05/28 02:33:59;;;;;;;15.27;12.50;;;21.90;89.30;;;;;;5036641;28;20589;-81
2022/05/28 02:36:28;;;;;;;20.13;13.23;;;21.90;89.50;;;;;;5041016;28;20209;-80
2022/05/28 02:38:56;;;;;;;21.90;12.70;;;21.80;89.50;;;;;;5041212;28;20234;-80
2022/05/28 02:41:27;;;;;;;18.80;13.30;;;21.80;89.40;;;;;;5042123;28;20309;-80
2022/05/28 02:43:54;;;;;;;17.80;12.97;;;21.80;89.40;;;;;;5045886;28;20199;-81
2022/05/28 02:46:22;;;;;;;23.07;14.87;;;21.70;89.80;;;;;;5061283;28;20223;-80
2022/05/28 02:48:50;;;;;;;24.10;15.93;;;21.70;90.10;;;;;;5061323;28;20203;-81
2022/05/28 02:51:23;;;;;;;20.63;15.30;;;21.70;90.20;;;;;;5053548;28;20194;-80
2022/05/28 02:53:53;;;;;;;19.73;14.30;;;21.70;90.40;;;;;;5049933;28;20206;-81
2022/05/28 02:56:22;;;;;;;23.63;14.50;;;21.70;90.30;;;;;;5047597;28;20257;-82
2022/05/28 02:58:51;;;;;;;21.47;15.90;;;21.70;90.20;;;;;;5045832;28;20242;-81
2022/05/28 03:01:28;;;;;;;26.60;14.17;;;21.70;90.10;;;;;;5036297;28;20228;-81
2022/05/28 03:03:56;;;;;;;22.50;13.57;;;21.70;90.10;;;;;;5043073;28;20275;-81
2022/05/28 03:06:23;;;;;;;22.57;15.47;;;21.60;89.70;;;;;;5041681;28;20726;-83
2022/05/28 03:08:51;;;;;;;23.43;15.97;;;21.60;89.70;;;;;;5021054;28;20287;-80
2022/05/28 03:11:18;;;;;;;25.70;15.30;;;21.60;89.70;;;;;;5042687;28;20305;-81
2022/05/28 03:13:46;;;;;;;20.97;15.07;;;21.60;89.80;;;;;;5036351;28;20202;-81
2022/05/28 03:16:17;;;;;;;26.87;17.40;;;21.60;89.70;;;;;;5057908;28;20206;-81
2022/05/28 03:18:45;;;;;;;22.87;15.73;;;21.50;90.00;;;;;;5049109;28;20640;-81
2022/05/28 03:21:12;;;;;;;19.80;16.67;;;21.50;90.20;;;;;;5062701;28;20233;-81
2022/05/28 03:23:40;;;;;;;25.27;17.37;;;21.50;90.40;;;;;;5044142;28;20292;-81
2022/05/28 03:26:28;;;;;;;25.93;16.30;;;21.50;90.70;;;;;;5043293;28;20210;-82
2022/05/28 03:28:56;;;;;;;22.80;16.87;;;21.50;91.00;;;;;;5058712;28;20256;-80
2022/05/28 03:31:28;;;;;;;25.77;16.83;;;21.50;91.10;;;;;;5044309;28;20261;-81
2022/05/28 03:33:56;;;;;;;21.30;17.13;;;21.50;91.30;;;;;;5039233;28;20217;-82
2022/05/28 03:36:25;;;;;;;23.77;16.83;;;21.60;91.30;;;;;;5042464;28;20203;-81
2022/05/28 03:38:52;;;;;;;24.83;14.90;;;21.60;91.30;;;;;;5063690;28;20203;-81
2022/05/28 03:41:21;;;;;;;22.27;14.90;;;21.60;91.00;;;;;;5049478;28;20549;-81
2022/05/28 03:43:49;;;;;;;22.27;17.33;;;21.60;90.80;;;;;;5041660;28;20222;-81
2022/05/28 03:46:27;;;;;;;24.80;16.90;;;21.60;90.60;;;;;;5041539;28;20227;-82
2022/05/28 03:48:58;;;;;;;30.20;18.07;;;21.60;90.70;;;;;;5040515;28;20254;-81
2022/05/28 03:51:26;;;;;;;23.37;15.63;;;21.60;90.80;;;;;;5041466;28;20207;-82
2022/05/28 03:53:53;;;;;;;23.33;15.20;;;21.70;90.80;;;;;;5041617;28;20250;-81
2022/05/28 03:56:22;;;;;;;26.53;15.17;;;21.60;90.70;;;;;;5041447;28;20656;-81
2022/05/28 03:58:50;;;;;;;30.67;15.83;;;21.60;90.50;;;;;;5028290;28;20226;-82
2022/05/28 04:01:18;;;;;;;23.77;15.83;;;21.70;90.40;;;;;;5018023;28;20233;-82
2022/05/28 04:03:46;;;;;;;27.43;15.23;;;21.70;90.30;;;;;;5053917;28;20210;-82
2022/05/28 04:06:14;;;;;;;29.03;16.47;;;21.70;90.10;;;;;;5064866;28;20203;-83
2022/05/28 04:08:45;;;;;;;29.67;15.83;;;21.70;90.00;;;;;;5059039;28;20728;-81
2022/05/28 04:11:14;;;;;;;27.67;16.10;;;21.70;90.00;;;;;;5009060;28;20203;-81
2022/05/28 04:13:42;;;;;;;23.97;16.53;;;21.80;90.00;;;;;;5041083;28;20221;-82
2022/05/28 04:16:10;;;;;;;37.40;16.53;;;21.80;90.00;;;;;;5024600;28;20218;-81
2022/05/28 04:18:38;;;;;;;26.07;15.47;;;21.80;90.00;;;;;;5057354;28;20203;-82
2022/05/28 04:21:07;;;;;;;23.73;15.53;;;21.90;90.10;;;;;;5038651;28;20204;-82
2022/05/28 04:23:35;;;;;;;21.63;16.40;;;21.90;90.10;;;;;;5042030;28;20200;-81
2022/05/28 04:26:02;;;;;;;21.60;17.37;;;22.00;90.10;;;;;;5057864;28;20214;-82
2022/05/28 04:28:29;;;;;;;20.90;17.17;;;22.00;90.10;;;;;;5043795;28;20223;-81
2022/05/28 04:30:57;;;;;;;25.50;17.03;;;22.10;90.10;;;;;;5057662;28;20195;-81
2022/05/28 04:33:25;;;;;;;28.23;15.60;;;22.10;90.00;;;;;;5033030;28;20191;-81
2022/05/28 04:35:56;;;;;;;21.80;15.93;;;22.20;90.00;;;;;;5040278;28;20223;-80
2022/05/28 04:38:24;;;;;;;21.50;15.40;;;22.30;89.90;;;;;;5024635;28;20239;-81
2022/05/28 04:40:52;;;;;;;26.10;16.00;;;22.40;89.60;;;;;;5039343;28;20211;-81
2022/05/28 04:43:19;;;;;;;19.03;15.27;;;22.40;89.50;;;;;;5060827;28;20207;-81
2022/05/28 04:45:48;;;;;;;24.27;15.87;;;22.50;89.50;;;;;;5050676;28;20199;-81
2022/05/28 04:48:15;;;;;;;22.03;15.17;;;22.50;89.50;;;;;;5030212;28;20221;-81
2022/05/28 04:50:45;;;;;;;25.90;15.73;;;22.60;89.50;;;;;;5063909;28;20233;-81
2022/05/28 04:53:16;;;;;;;18.87;15.50;;;22.60;89.50;;;;;;5040952;28;20205;-80
2022/05/28 04:55:45;;;;;;;25.13;16.30;;;22.70;89.60;;;;;;5045451;28;20231;-82
2022/05/28 04:58:13;;;;;;;24.13;16.07;;;22.80;89.60;;;;;;5042679;28;20211;-81
2022/05/28 05:00:44;;;;;;;30.73;18.10;;;22.90;89.50;;;;;;5059030;28;20207;-82
2022/05/28 05:03:14;;;;;;;25.23;16.73;;;22.90;89.50;;;;;;5035307;28;20253;-82
2022/05/28 05:05:43;;;;;;;27.17;17.17;;;23.00;89.30;;;;;;5036440;28;20261;-81
2022/05/28 05:08:12;;;;;;;24.97;16.53;;;23.10;89.30;;;;;;5052780;28;20227;-82
2022/05/28 05:10:44;;;;;;;21.67;16.20;;;23.20;89.30;;;;;;5034190;28;20214;-84
2022/05/28 05:13:11;;;;;;;27.53;15.07;;;23.40;88.80;;;;;;5043333;28;20226;-81
2022/05/28 05:15:41;;;;;;;28.80;16.13;;;23.50;88.10;;;;;;5051026;28;20202;-81
2022/05/28 05:18:09;;;;;;;19.63;15.17;;;23.70;87.60;;;;;;5045716;28;20543;-82
2022/05/28 05:20:36;;;;;;;23.67;15.10;;;23.80;86.80;;;;;;5011435;28;20628;-82
2022/05/28 05:23:04;;;;;;;19.47;14.70;;;23.90;86.40;;;;;;5070021;28;20202;-81
2022/05/28 05:25:32;;;;;;;24.73;15.80;;;24.00;86.00;;;;;;5028547;28;20211;-82
2022/05/28 05:28:00;;;;;;;24.93;14.13;;;24.10;85.70;;;;;;5051457;28;20225;-82
2022/05/28 05:30:27;;;;;;;17.23;14.90;;;24.20;85.40;;;;;;5044561;28;20529;-82
2022/05/28 05:32:56;;;;;;;16.63;13.90;;;24.30;85.30;;;;;;5033877;28;20203;-82
2022/05/28 05:35:26;;;;;;;19.63;14.53;;;24.40;85.20;;;;;;5050403;28;20234;-81
2022/05/28 05:37:53;;;;;;;23.90;13.50;;;24.50;85.10;;;;;;5039717;28;20217;-81
2022/05/28 05:40:21;;;;;;;18.47;14.13;;;24.60;84.70;;;;;;5043120;28;20296;-83
2022/05/28 05:42:48;;;;;;;24.87;13.37;;;24.70;84.80;;;;;;5048596;28;20195;-82
2022/05/28 05:45:15;;;;;;;19.97;12.90;;;24.80;84.70;;;;;;5059276;28;20312;-82
2022/05/28 05:47:42;;;;;;;15.43;12.77;;;24.90;84.50;;;;;;5056582;28;20221;-81
2022/05/28 05:50:09;;;;;;;15.03;12.43;;;25.00;84.20;;;;;;5028407;28;20310;-81
2022/05/28 05:52:39;;;;;;;20.67;11.70;;;25.10;83.80;;;;;;5033941;28;20196;-82
2022/05/28 05:55:16;;;;;;;14.53;11.53;;;25.20;84.00;;;;;;5049448;28;20313;-81
2022/05/28 05:57:43;;;;;;;21.87;12.13;;;25.30;83.70;;;;;;5051121;28;20238;-82
2022/05/28 06:00:14;;;;;;;20.13;11.93;;;25.40;83.20;;;;;;5031790;28;20698;-83
2022/05/28 06:02:42;;;;;;;18.13;10.77;;;25.50;82.10;;;;;;5040368;28;20314;-83
2022/05/28 06:05:10;;;;;;;15.53;11.23;;;25.60;82.20;;;;;;5053416;28;20302;-81
2022/05/28 06:07:38;;;;;;;18.27;11.90;;;25.70;82.40;;;;;;5035679;28;20227;-81
2022/05/28 06:10:09;;;;;;;20.00;11.23;;;25.80;82.20;;;;;;5048657;28;20203;-82
2022/05/28 06:12:37;;;;;;;17.40;10.57;;;25.90;81.50;;;;;;5042215;28;20209;-83
2022/05/28 06:15:05;;;;;;;13.40;10.17;;;26.00;81.40;;;;;;5048516;28;20244;-82
2022/05/28 06:17:36;;;;;;;18.83;11.07;;;26.10;81.10;;;;;;5050898;28;20224;-82
2022/05/28 06:20:06;;;;;;;19.13;10.50;;;26.20;80.90;;;;;;5026250;28;20234;-82
2022/05/28 06:22:34;;;;;;;15.60;10.07;;;26.30;80.50;;;;;;5055420;28;20308;-82
2022/05/28 06:25:01;;;;;;;15.87;9.33;;;26.40;80.40;;;;;;5061459;28;20217;-81
2022/05/28 06:27:32;;;;;;;18.70;10.40;;;26.50;80.20;;;;;;5036680;28;20255;-81
2022/05/28 06:30:01;;;;;;;14.30;9.27;;;26.50;79.70;;;;;;5032630;28;20203;-83
2022/05/28 06:32:28;;;;;;;12.17;8.83;;;26.60;79.90;;;;;;5042829;28;20300;-83
2022/05/28 06:34:56;;;;;;;17.10;9.57;;;26.60;80.00;;;;;;5067906;28;20195;-83
2022/05/28 06:37:24;;;;;;;18.67;10.10;;;26.60;80.10;;;;;;5041020;28;20217;-83
2022/05/28 06:39:52;;;;;;;11.27;9.57;;;26.70;80.20;;;;;;5033819;28;20282;-82
2022/05/28 06:42:20;;;;;;;19.50;9.60;;;26.90;79.90;;;;;;5057291;28;20222;-82
2022/05/28 06:44:55;;;;;;;14.83;10.00;;;26.90;79.10;;;;;;5056466;28;20202;-83
2022/05/28 06:47:24;;;;;;;17.87;9.53;;;27.00;77.80;;;;;;5047462;28;20225;-82
2022/05/28 06:52:37;;;;;;;15.57;8.63;;;26.90;78.70;;;;;;5070487;28;20198;-82
2022/05/28 06:55:05;;;;;;;11.57;7.70;;;27.00;78.90;;;;;;5031906;28;20246;-82
2022/05/28 06:57:39;;;;;;;12.27;8.43;;;27.00;78.80;;;;;;5053603;28;20218;-82
2022/05/28 07:00:08;;;;;;;9.37;7.53;;;27.10;78.30;;;;;;5036578;28;20199;-82
2022/05/28 07:02:35;;;;;;;12.83;8.00;;;27.10;78.00;;;;;;5023090;28;20215;-83
2022/05/28 07:05:03;;;;;;;11.57;7.77;;;27.20;78.70;;;;;;5036877;28;20230;-83
2022/05/28 07:07:30;;;;;;;11.63;8.47;;;27.30;79.20;;;;;;5045744;28;20232;-83
2022/05/28 07:09:57;;;;;;;14.73;7.53;;;27.40;77.60;;;;;;5035982;28;20268;-83
2022/05/28 07:12:25;;;;;;;13.53;6.90;;;27.50;77.00;;;;;;5036196;28;20205;-83
2022/05/28 07:14:52;;;;;;;10.90;7.03;;;27.50;77.10;;;;;;5055272;28;20187;-83
2022/05/28 07:17:22;;;;;;;14.83;6.27;;;27.60;77.40;;;;;;5059232;28;20635;-82
2022/05/28 07:19:50;;;;;;;9.37;6.10;;;27.80;77.20;;;;;;5037139;28;20639;-82
2022/05/28 07:22:19;;;;;;;11.53;6.40;;;27.90;75.30;;;;;;5055572;28;20226;-81
2022/05/28 07:24:46;;;;;;;8.70;5.60;;;28.00;75.50;;;;;;5024072;28;20222;-82
2022/05/28 07:27:14;;;;;;;14.17;6.03;;;28.10;74.80;;;;;;5046606;28;20305;-83
2022/05/28 07:29:41;;;;;;;11.77;5.77;;;28.20;74.20;;;;;;5051493;28;20513;-83
2022/05/28 07:32:08;;;;;;;9.60;5.37;;;28.30;73.70;;;;;;5052995;28;20200;-81
2022/05/28 07:34:36;;;;;;;13.47;5.43;;;28.30;72.70;;;;;;5068275;28;20202;-81
2022/05/28 07:37:03;;;;;;;12.20;5.90;;;28.30;73.40;;;;;;5061773;28;20202;-82
2022/05/28 07:39:31;;;;;;;12.93;5.43;;;28.40;72.80;;;;;;5053964;28;20203;-82
2022/05/28 07:41:58;;;;;;;12.73;5.30;;;28.40;72.90;;;;;;5053872;28;20207;-82
2022/05/28 07:44:27;;;;;;;13.57;5.43;;;28.60;71.50;;;;;;5048504;28;20213;-82
2022/05/28 07:46:57;;;;;;;10.97;5.10;;;28.60;71.60;;;;;;5049996;28;20203;-81
2022/05/28 07:49:25;;;;;;;10.07;5.03;;;28.70;71.40;;;;;;5033806;28;20242;-83
2022/05/28 07:51:53;;;;;;;11.07;4.23;;;28.80;69.80;;;;;;5041049;28;20225;-84
2022/05/28 07:54:21;;;;;;;9.87;4.47;;;28.90;68.90;;;;;;5041878;28;20285;-81
2022/05/28 07:56:48;;;;;;;8.20;3.57;;;29.00;66.80;;;;;;5072958;28;20202;-82
2022/05/28 07:59:16;;;;;;;8.67;3.83;;;29.10;64.10;;;;;;5047839;28;20231;-82
2022/05/28 08:01:45;;;;;;;11.77;4.10;;;29.00;64.40;;;;;;5045017;28;20206;-82
2022/05/28 08:04:14;;;;;;;8.87;3.83;;;29.00;62.00;;;;;;5048638;28;20199;-82
2022/05/28 08:06:42;;;;;;;6.67;3.23;;;29.10;61.00;;;;;;5028684;28;20249;-82
2022/05/28 08:09:11;;;;;;;10.00;4.00;;;29.10;59.90;;;;;;5053436;28;20222;-83
2022/05/28 08:11:39;;;;;;;7.77;3.87;;;29.10;60.10;;;;;;5049008;28;20206;-83
2022/05/28 08:14:06;;;;;;;11.90;4.53;;;29.10;59.00;;;;;;5048463;28;20220;-83
2022/05/28 08:16:35;;;;;;;6.83;3.77;;;29.10;60.10;;;;;;5039457;28;20203;-83
2022/05/28 08:19:03;;;;;;;13.03;4.00;;;29.20;59.80;;;;;;5022140;28;20699;-84
2022/05/28 08:24:18;;;;;;;10.53;3.93;;;29.60;58.90;;;;;;5047725;28;20202;-82
2022/05/28 08:26:48;;;;;;;9.23;3.80;;;29.80;57.50;;;;;;5039254;28;20225;-85
2022/05/28 08:29:16;;;;;;;11.40;3.67;;;29.90;56.90;;;;;;5046152;28;20254;-83
2022/05/28 08:31:44;;;;;;;9.13;4.07;;;29.90;57.90;;;;;;5049171;28;20207;-80
2022/05/28 08:34:12;;;;;;;8.40;3.53;;;30.00;56.70;;;;;;5065706;28;20214;-83
2022/05/28 08:36:39;;;;;;;7.03;3.57;;;30.00;56.00;;;;;;5031548;28;20214;-82
2022/05/28 08:39:06;;;;;;;5.30;3.60;;;30.10;56.20;;;;;;5048299;28;20195;-82
2022/05/28 08:41:44;;;;;;;9.50;3.70;;;30.10;56.80;;;;;;5037252;28;20203;-82
2022/05/28 08:44:14;;;;;;;9.27;3.67;;;30.20;55.10;;;;;;5057353;28;20238;-81
2022/05/28 08:46:44;;;;;;;11.00;3.70;;;30.20;55.50;;;;;;5033304;28;20202;-81
2022/05/28 08:49:14;;;;;;;7.47;3.13;;;30.30;55.00;;;;;;5056010;28;20261;-84
2022/05/28 08:52:07;;;;;;;8.10;3.70;;;30.40;55.50;;;;;;5061701;28;20218;-83
2022/05/28 08:54:59;;;;;;;8.93;4.60;;;30.50;54.70;;;;;;5047237;28;20242;-81
2022/05/28 08:57:39;;;;;;;10.87;4.53;;;30.50;53.80;;;;;;5049446;28;20603;-83
2022/05/28 09:00:11;;;;;;;10.50;4.00;;;30.50;53.70;;;;;;5058129;28;20198;-83
2022/05/28 09:02:42;;;;;;;14.53;4.37;;;30.40;53.80;;;;;;5037178;28;20544;-84
2022/05/28 09:05:25;;;;;;;8.27;3.77;;;30.40;54.00;;;;;;5065783;28;20622;-83
2022/05/28 09:07:57;;;;;;;6.57;3.60;;;30.40;55.10;;;;;;5039105;28;20202;-83
2022/05/28 09:10:27;;;;;;;7.33;3.43;;;30.50;52.60;;;;;;5052980;28;20538;-82
2022/05/28 09:13:01;;;;;;;7.63;4.13;;;30.60;54.50;;;;;;5049777;28;20214;-82
2022/05/28 09:15:29;;;;;;;10.53;3.87;;;30.60;53.70;;;;;;5026131;28;20199;-81
2022/05/28 09:17:57;;;;;;;9.57;3.77;;;30.70;52.90;;;;;;5048411;28;20261;-82
2022/05/28 09:20:38;;;;;;;8.27;3.93;;;30.70;52.70;;;;;;5065662;28;20206;-83
2022/05/28 09:23:06;;;;;;;9.33;4.17;;;30.70;53.60;;;;;;5047275;28;20226;-80
2022/05/28 09:25:40;;;;;;;14.50;4.30;;;30.70;53.00;;;;;;5050299;28;20214;-82
2022/05/28 09:28:14;;;;;;;19.20;4.63;;;30.70;53.00;;;;;;5063002;28;20271;-82
2022/05/28 09:30:53;;;;;;;8.97;4.23;;;30.70;53.00;;;;;;5022226;28;20207;-83
2022/05/28 09:33:20;;;;;;;8.70;3.77;;;30.90;53.40;;;;;;5043466;28;20235;-82
2022/05/28 09:35:56;;;;;;;8.93;3.83;;;31.10;52.30;;;;;;5027347;28;20211;-82
2022/05/28 09:38:45;;;;;;;8.00;4.13;;;31.30;53.00;;;;;;5050072;28;20236;-83
2022/05/28 09:41:29;;;;;;;12.87;4.73;;;31.50;53.00;;;;;;5030506;28;20207;-83
2022/05/28 09:44:16;;;;;;;6.97;3.67;;;31.70;53.40;;;;;;5048762;28;20221;-82
2022/05/28 09:46:45;;;;;;;8.87;4.13;;;31.80;51.00;;;;;;5057432;28;20234;-83
2022/05/28 09:49:22;;;;;;;7.10;3.60;;;31.80;50.50;;;;;;5033324;28;20223;-83
2022/05/28 09:51:51;;;;;;;8.67;3.77;;;31.80;50.20;;;;;;5044356;28;20536;-82
2022/05/28 09:54:23;;;;;;;8.50;3.67;;;31.70;50.30;;;;;;5046770;28;20252;-82
2022/05/28 09:56:53;;;;;;;7.23;3.47;;;31.60;49.60;;;;;;5044489;28;20225;-82
2022/05/28 09:59:38;;;;;;;7.50;3.20;;;31.50;49.70;;;;;;5024809;28;20669;-82
2022/05/28 10:02:19;;;;;;;7.83;3.60;;;31.50;49.80;;;;;;5054688;28;20205;-84
2022/05/28 10:04:58;;;;;;;10.13;3.60;;;31.60;50.90;;;;;;5051128;28;20218;-82
2022/05/28 10:07:34;;;;;;;8.90;3.40;;;31.70;50.90;;;;;;5062244;28;20203;-82
2022/05/28 10:10:11;;;;;;;8.83;3.23;;;32.10;50.80;;;;;;5032934;28;20534;-81
2022/05/28 10:12:38;;;;;;;11.93;3.77;;;32.40;48.90;;;;;;5049998;28;20208;-80
2022/05/28 10:15:11;;;;;;;7.63;3.30;;;32.50;47.90;;;;;;5045833;28;20253;-83
2022/05/28 10:17:41;;;;;;;10.97;3.57;;;32.30;47.40;;;;;;5047326;28;20549;-81
2022/05/28 10:20:18;;;;;;;11.07;3.67;;;32.00;47.90;;;;;;5062074;28;20210;-82
2022/05/28 10:22:47;;;;;;;7.80;3.80;;;31.80;49.10;;;;;;5053671;28;20216;-82
2022/05/28 10:25:38;;;;;;;6.00;3.10;;;31.60;48.20;;;;;;5033923;28;20221;-84
2022/05/28 10:28:11;;;;;;;10.80;4.10;;;31.30;49.10;;;;;;5041437;28;20199;-83
2022/05/28 10:30:42;;;;;;;5.70;3.07;;;31.20;50.70;;;;;;5037432;28;20292;-83
2022/05/28 10:33:22;;;;;;;10.10;3.53;;;31.10;50.70;;;;;;5040966;28;20206;-83
2022/05/28 10:35:50;;;;;;;9.80;3.20;;;31.10;51.10;;;;;;5047422;28;20199;-83
2022/05/28 10:38:26;;;;;;;14.13;3.53;;;31.10;51.60;;;;;;5035390;28;20210;-82
2022/05/28 10:41:00;;;;;;;11.63;3.87;;;31.20;53.10;;;;;;5046528;28;20225;-81
2022/05/28 10:43:30;;;;;;;6.70;2.73;;;31.10;53.20;;;;;;5051065;28;20225;-82
2022/05/28 10:46:11;;;;;;;8.83;3.80;;;30.90;54.20;;;;;;5046582;28;20215;-82
2022/05/28 10:49:16;;;;;;;9.80;2.73;;;30.70;55.10;;;;;;5060215;28;20555;-83
2022/05/28 10:52:01;;;;;;;8.53;3.07;;;30.70;56.40;;;;;;5043921;28;20230;-81
2022/05/28 10:55:06;;;;;;;9.30;3.83;;;30.70;58.30;;;;;;5060299;28;20268;-83
2022/05/28 10:58:00;;;;;;;8.23;3.73;;;30.60;58.20;;;;;;5063795;28;20670;-83
2022/05/28 11:00:31;;;;;;;8.67;3.40;;;30.50;58.70;;;;;;5051614;28;20196;-82
2022/05/28 11:03:16;;;;;;;9.03;3.97;;;30.30;59.20;;;;;;5032988;28;20207;-79
2022/05/28 11:06:10;;;;;;;8.63;3.33;;;30.20;59.50;;;;;;5050113;28;20222;-80
2022/05/28 11:09:01;;;;;;;7.90;3.83;;;30.10;58.60;;;;;;5065570;28;20245;-83
2022/05/28 11:11:40;;;;;;;10.33;2.83;;;30.00;58.80;;;;;;5034969;28;20233;-82
2022/05/28 11:14:45;;;;;;;10.47;3.30;;;29.90;58.00;;;;;;5046595;28;20244;-81
2022/05/28 11:17:31;;;;;;;10.70;2.90;;;29.70;57.50;;;;;;5045197;28;20206;-81
2022/05/28 11:20:17;;;;;;;8.23;3.10;;;29.70;57.40;;;;;;5038808;28;20230;-81
2022/05/28 11:23:11;;;;;;;12.30;3.20;;;29.70;57.10;;;;;;5022933;28;20207;-82
2022/05/28 11:26:10;;;;;;;6.87;2.50;;;29.60;56.00;;;;;;5054039;28;20702;-83
2022/05/28 11:28:52;;;;;;;6.30;2.97;;;29.40;56.40;;;;;;5027325;28;20219;-81
2022/05/28 11:31:32;;;;;;;7.57;2.80;;;29.30;55.90;;;;;;5049353;28;20233;-82
2022/05/28 11:34:09;;;;;;;11.20;3.07;;;29.40;55.60;;;;;;5040648;28;20190;-80
2022/05/28 11:37:15;;;;;;;15.93;3.43;;;29.50;54.70;;;;;;5034642;28;20693;-80
2022/05/28 11:39:55;;;;;;;9.20;3.20;;;29.40;54.70;;;;;;5069590;28;20238;-80
2022/05/28 11:42:31;;;;;;;11.17;3.43;;;29.40;55.00;;;;;;5051353;28;20649;-81
2022/05/28 11:45:03;;;;;;;13.93;3.40;;;29.40;55.50;;;;;;5031402;28;20214;-84
2022/05/28 11:47:53;;;;;;;11.27;3.23;;;29.60;55.10;;;;;;5046361;28;20226;-82
2022/05/28 11:53:52;;;;;;;10.80;2.53;;;30.10;52.60;;;;;;5055765;28;20218;-80
2022/05/28 11:56:24;;;;;;;7.90;2.73;;;30.30;50.40;;;;;;5038123;28;20263;-80
2022/05/28 11:59:04;;;;;;;9.20;2.60;;;30.20;51.10;;;;;;5039889;28;20203;-82
2022/05/28 12:01:43;;;;;;;11.90;3.13;;;30.10;49.90;;;;;;5027354;28;20703;-82
2022/05/28 12:04:11;;;;;;;8.43;2.93;;;30.10;50.80;;;;;;5042271;28;20226;-81
2022/05/28 12:06:46;;;;;;;14.30;3.20;;;30.10;50.60;;;;;;5051806;28;20516;-82
2022/05/28 12:09:16;;;;;;;14.03;3.33;;;30.20;50.60;;;;;;5030690;28;20304;-81
2022/05/28 12:11:43;;;;;;;9.27;2.80;;;30.40;49.40;;;;;;5047384;28;20293;-81
2022/05/28 12:14:32;;;;;;;11.20;3.00;;;30.50;48.60;;;;;;5063539;28;20206;-80
2022/05/28 12:17:22;;;;;;;8.07;2.47;;;30.60;47.50;;;;;;5035817;28;20202;-82
2022/05/28 12:19:56;;;;;;;13.40;3.40;;;30.60;47.60;;;;;;5042898;28;20211;-80
2022/05/28 12:22:35;;;;;;;9.37;2.53;;;30.60;48.10;;;;;;5041163;28;20234;-82
2022/05/28 12:25:11;;;;;;;11.27;2.50;;;30.60;48.00;;;;;;5045616;28;20229;-80
2022/05/28 12:27:49;;;;;;;9.20;2.47;;;30.70;48.60;;;;;;5045410;28;20209;-82
2022/05/28 12:30:47;;;;;;;7.77;2.50;;;30.80;47.90;;;;;;5037775;28;20215;-83
2022/05/28 12:33:30;;;;;;;11.37;2.37;;;30.90;48.10;;;;;;5050817;28;20199;-81
2022/05/28 12:36:08;;;;;;;10.43;2.30;;;31.00;48.60;;;;;;5050486;28;20274;-82
2022/05/28 12:39:03;;;;;;;10.53;2.90;;;31.10;48.70;;;;;;5043220;28;20202;-82
2022/05/28 12:41:35;;;;;;;11.77;3.07;;;31.20;48.00;;;;;;5025831;28;20675;-83
2022/05/28 12:44:23;;;;;;;9.93;2.57;;;31.40;47.70;;;;;;5038158;28;20198;-80
2022/05/28 12:46:56;;;;;;;8.87;2.67;;;31.50;47.40;;;;;;5055895;28;20588;-81
2022/05/28 12:49:33;;;;;;;6.57;2.97;;;31.50;47.00;;;;;;5053886;28;20226;-79
2022/05/28 12:52:14;;;;;;;13.57;2.37;;;31.40;46.90;;;;;;5049149;28;20572;-80
2022/05/28 12:54:43;;;;;;;8.47;2.87;;;31.30;45.70;;;;;;5034002;28;20664;-83
2022/05/28 12:57:26;;;;;;;8.23;2.23;;;31.10;46.90;;;;;;5054612;28;20221;-82
2022/05/28 13:00:03;;;;;;;9.27;2.47;;;31.10;46.40;;;;;;5031622;28;20202;-81
2022/05/28 13:02:38;;;;;;;8.10;2.97;;;31.10;46.00;;;;;;5052105;28;20202;-82
2022/05/28 13:05:29;;;;;;;10.43;2.93;;;31.00;46.00;;;;;;5041040;28;20200;-81
2022/05/28 13:08:03;;;;;;;9.50;3.40;;;30.80;45.40;;;;;;5006275;28;20639;-82
2022/05/28 13:10:30;;;;;;;7.43;2.30;;;30.80;46.30;;;;;;5065631;28;20517;-80
2022/05/28 13:13:12;;;;;;;8.23;2.30;;;30.80;45.60;;;;;;5038709;28;20291;-82
2022/05/28 13:16:23;;;;;;;9.03;2.53;;;30.80;46.10;;;;;;5049173;28;20210;-80